Time;durP1;ratioP1;P1;durP2;ratioP2;P2;SDS_P1;SDS_P2;PMS_P1;PMS_P2;Temp;Humidity;BMP_temperature;BMP_pressure;BME280_temperature;BME280_humidity;BME280_pressure;Samples;Min_cycle;Max_cycle;Signal;HPM_P1;HPM_P2
2022/12/03 00:00:15;;;;;;;70.30;25.40;;;;;;;-1.17;94.25;99217.65;103053;1302;138321;-76
2022/12/03 00:03:02;;;;;;;69.60;25.70;;;;;;;-1.17;94.10;99215.73;103286;1308;22501;-76
2022/12/03 00:05:29;;;;;;;71.20;25.80;;;;;;;-1.19;94.42;99215.90;103087;1291;139764;-76
2022/12/03 00:07:55;;;;;;;63.40;23.10;;;;;;;-1.20;94.11;99214.41;103213;1313;23914;-76
2022/12/03 00:10:25;;;;;;;68.60;25.90;;;;;;;-1.22;94.20;99215.42;103315;1286;23854;-76
2022/12/03 00:12:52;;;;;;;72.30;25.40;;;;;;;-1.22;94.24;99214.21;102965;1285;138377;-77
2022/12/03 00:15:19;;;;;;;71.50;24.50;;;;;;;-1.22;94.55;99213.81;103178;1313;22516;-76
2022/12/03 00:17:46;;;;;;;63.80;23.90;;;;;;;-1.20;94.77;99216.04;103081;1297;138501;-76
2022/12/03 00:20:22;;;;;;;68.80;25.60;;;;;;;-1.21;94.55;99216.02;103119;1301;25325;-76
2022/12/03 00:22:49;;;;;;;62.20;22.20;;;;;;;-1.20;95.10;99220.43;103197;1310;22970;-76
2022/12/03 00:25:17;;;;;;;59.60;23.20;;;;;;;-1.18;94.58;99218.86;103009;1310;139177;-76
2022/12/03 00:27:44;;;;;;;72.90;25.90;;;;;;;-1.17;94.99;99225.50;103118;1310;22491;-77
2022/12/03 00:30:11;;;;;;;66.60;24.50;;;;;;;-1.16;94.68;99223.99;102949;1286;138225;-77
2022/12/03 00:32:38;;;;;;;70.70;26.90;;;;;;;-1.16;94.48;99227.71;103046;1310;24365;-77
2022/12/03 00:35:05;;;;;;;67.80;26.50;;;;;;;-1.16;94.65;99232.67;103045;1296;24329;-76
2022/12/03 00:37:34;;;;;;;65.50;25.00;;;;;;;-1.15;94.77;99232.63;103005;1309;138050;-77
2022/12/03 00:40:02;;;;;;;68.80;25.20;;;;;;;-1.13;95.17;99235.06;103021;1301;22721;-76
2022/12/03 00:42:30;;;;;;;60.40;23.80;;;;;;;-1.11;95.08;99235.59;103245;1301;138362;-76
2022/12/03 00:44:57;;;;;;;65.60;25.80;;;;;;;-1.10;94.85;99229.77;103249;1310;23891;-77
2022/12/03 00:47:24;;;;;;;69.60;24.10;;;;;;;-1.10;94.59;99233.34;103827;1286;138523;-77
2022/12/03 00:49:51;;;;;;;67.60;23.50;;;;;;;-1.09;94.98;99230.40;103271;1302;24291;-76
2022/12/03 00:52:18;;;;;;;66.40;24.00;;;;;;;-1.07;94.59;99225.66;103087;1288;23429;-76
2022/12/03 00:54:45;;;;;;;60.40;22.60;;;;;;;-1.08;94.69;99224.63;103068;1304;138385;-76
2022/12/03 00:57:12;;;;;;;64.30;22.00;;;;;;;-1.07;94.60;99221.39;103407;1287;24931;-76
2022/12/03 00:59:40;;;;;;;57.40;21.80;;;;;;;-1.07;94.50;99218.89;102972;1297;138468;-76
2022/12/03 01:02:07;;;;;;;66.70;22.90;;;;;;;-1.09;94.80;99219.05;103428;1287;22753;-77
2022/12/03 01:04:34;;;;;;;62.10;23.40;;;;;;;-1.11;94.72;99219.70;102963;1295;22863;-77
2022/12/03 01:07:01;;;;;;;64.70;23.40;;;;;;;-1.12;94.47;99215.22;102972;1285;140144;-76
2022/12/03 01:09:28;;;;;;;58.80;22.70;;;;;;;-1.11;94.80;99217.48;103093;1301;22478;-77
2022/12/03 01:11:55;;;;;;;60.00;24.00;;;;;;;-1.11;94.85;99216.77;102909;1306;140432;-77
2022/12/03 01:14:22;;;;;;;66.30;24.80;;;;;;;-1.10;94.88;99218.98;102928;1307;24245;-76
2022/12/03 01:16:48;;;;;;;62.30;24.60;;;;;;;-1.10;94.93;99218.02;103163;1310;24227;-76
2022/12/03 01:19:18;;;;;;;67.60;24.70;;;;;;;-1.07;94.92;99219.95;103032;1294;138251;-77
2022/12/03 01:21:48;;;;;;;69.80;24.00;;;;;;;-1.06;95.06;99212.30;103138;1285;22510;-76
2022/12/03 01:24:16;;;;;;;60.30;22.70;;;;;;;-1.05;94.92;99202.95;103010;1294;139141;-76
2022/12/03 01:26:43;;;;;;;69.20;24.30;;;;;;;-1.05;94.87;99196.21;103086;1302;25208;-76
2022/12/03 01:29:09;;;;;;;65.20;23.50;;;;;;;-1.05;95.21;99198.83;103094;1301;22480;-77
2022/12/03 01:34:22;;;;;;;70.20;24.20;;;;;;;-1.01;95.25;99194.48;103087;1303;22882;-77
2022/12/03 01:36:51;;;;;;;65.00;24.50;;;;;;;-1.01;94.86;99195.80;102942;1299;138268;-77
2022/12/03 01:39:18;;;;;;;69.60;24.10;;;;;;;-1.01;95.01;99197.33;103054;1304;24330;-76
2022/12/03 01:41:47;;;;;;;68.30;25.00;;;;;;;-1.00;94.76;99201.38;102904;1313;139118;-76
2022/12/03 01:44:21;;;;;;;;;;;;;;;-1.01;94.85;99195.95;103076;1301;23251;-77
2022/12/03 01:46:50;;;;;;;69.40;23.80;;;;;;;-1.03;94.82;99194.89;103032;1305;22596;-77
2022/12/03 01:49:21;;;;;;;69.20;24.40;;;;;;;-1.05;94.76;99192.09;103008;1310;138443;-77
2022/12/03 01:51:50;;;;;;;68.80;25.00;;;;;;;-1.08;94.60;99189.94;103031;1310;24234;-77
2022/12/03 01:54:35;;;;;;;65.40;23.60;;;;;;;-1.11;94.86;99193.92;102918;1301;138240;-77
2022/12/03 01:57:03;;;;;;;66.70;24.10;;;;;;;-1.11;95.25;99201.77;103080;1286;22463;-77
2022/12/03 01:59:36;;;;;;;67.00;25.10;;;;;;;-1.11;95.30;99204.03;102928;1310;139010;-77
2022/12/03 02:02:17;;;;;;;71.50;25.60;;;;;;;-1.12;95.21;99203.99;103072;1302;22496;-77
2022/12/03 02:04:44;;;;;;;85.50;25.40;;;;;;;-1.12;95.39;99205.09;103193;1295;23472;-76
2022/12/03 02:07:28;;;;;;;74.30;27.10;;;;;;;-1.12;95.51;99207.20;103033;1279;138467;-77
2022/12/03 02:09:58;;;;;;;74.90;26.40;;;;;;;-1.12;95.36;99201.38;103044;1310;23315;-76
2022/12/03 02:12:35;;;;;;;80.60;26.90;;;;;;;-1.11;95.50;99196.12;102966;1305;138367;-77
2022/12/03 02:15:03;;;;;;;84.00;26.80;;;;;;;-1.11;95.76;99201.40;102982;1311;22461;-76
2022/12/03 02:17:30;;;;;;;83.70;26.20;;;;;;;-1.11;95.51;99201.04;102999;1288;138722;-76
2022/12/03 02:19:58;;;;;;;84.40;25.30;;;;;;;-1.10;95.55;99194.34;103005;1306;22559;-76
2022/12/03 02:22:47;;;;;;;78.40;26.50;;;;;;;-1.09;95.59;99195.02;103018;1290;22489;-77
2022/12/03 02:25:18;;;;;;;86.20;26.10;;;;;;;-1.09;95.69;99198.71;102955;1310;138220;-77
2022/12/03 02:27:46;;;;;;;77.70;27.20;;;;;;;-1.10;95.59;99199.40;103045;1310;25204;-77
2022/12/03 02:30:17;;;;;;;85.70;26.30;;;;;;;-1.11;95.66;99202.47;102969;1310;138276;-77
2022/12/03 02:32:45;;;;;;;84.90;26.80;;;;;;;-1.08;96.33;99205.74;103241;1296;22505;-77
2022/12/03 02:35:18;;;;;;;90.10;26.80;;;;;;;-1.08;95.76;99207.57;103204;1290;25398;-77
2022/12/03 02:37:48;;;;;;;90.40;27.30;;;;;;;-1.09;95.60;99208.90;103255;1301;23087;-77
2022/12/03 02:40:19;;;;;;;88.40;26.40;;;;;;;-1.10;95.90;99214.46;103253;1294;24182;-77
2022/12/03 02:42:47;;;;;;;89.00;28.20;;;;;;;-1.07;96.08;99210.30;102944;1296;138275;-77
2022/12/03 02:45:19;;;;;;;87.10;28.90;;;;;;;-1.07;96.07;99203.51;103061;1303;22487;-77
2022/12/03 02:47:58;;;;;;;90.90;27.30;;;;;;;-1.06;96.08;99203.61;102842;1295;138959;-77
2022/12/03 02:50:31;;;;;;;79.80;27.30;;;;;;;-1.06;95.98;99206.02;102991;1298;24315;-77
2022/12/03 02:53:02;;;;;;;83.60;27.70;;;;;;;-1.04;96.16;99208.55;102974;1296;22487;-76
2022/12/03 02:55:31;;;;;;;98.00;29.70;;;;;;;-1.03;96.27;99210.27;102901;1298;139039;-77
2022/12/03 02:57:58;;;;;;;;;;;;;;;-1.04;96.31;99212.63;103195;1303;22899;-77
2022/12/03 03:00:25;;;;;;;81.50;26.10;;;;;;;-1.03;96.36;99212.33;102911;1310;125303;-76
2022/12/03 03:02:52;;;;;;;89.50;29.00;;;;;;;-1.03;96.45;99210.00;102967;1285;26485;-77
2022/12/03 03:05:22;;;;;;;90.70;27.70;;;;;;;-1.02;96.50;99205.13;103064;1279;138428;-76
2022/12/03 03:07:51;;;;;;;91.00;28.90;;;;;;;-1.01;96.58;99205.61;103013;1313;22500;-77
2022/12/03 03:10:22;;;;;;;89.00;28.40;;;;;;;-1.01;96.57;99204.80;103012;1295;22532;-76
2022/12/03 03:12:51;;;;;;;94.40;28.70;;;;;;;-0.99;96.46;99208.17;102916;1304;138438;-77
2022/12/03 03:15:18;;;;;;;;;;;;;;;-0.97;96.31;99200.17;103174;1279;24353;-77
2022/12/03 03:17:45;;;;;;;90.20;29.10;;;;;;;-0.98;96.50;99199.70;103005;1286;124701;-77
2022/12/03 03:20:12;;;;;;;90.80;28.20;;;;;;;-0.98;96.24;99193.14;103022;1288;25256;-76
2022/12/03 03:22:41;;;;;;;97.60;29.60;;;;;;;-1.00;96.20;99191.25;103046;1295;23205;-77
2022/12/03 03:25:11;;;;;;;87.80;26.40;;;;;;;-1.02;96.37;99194.03;102973;1302;138309;-77
2022/12/03 03:27:40;;;;;;;81.20;25.60;;;;;;;-1.04;96.13;99191.41;103042;1306;22889;-77
2022/12/03 03:30:09;;;;;;;89.20;27.30;;;;;;;-1.06;96.43;99194.50;102998;1303;138321;-76
2022/12/03 03:32:37;;;;;;;94.10;27.60;;;;;;;-1.07;96.71;99192.09;103226;1288;22482;-77
2022/12/03 03:35:06;;;;;;;80.30;26.50;;;;;;;-1.06;96.71;99195.09;103256;1305;22483;-77
2022/12/03 03:37:34;;;;;;;88.40;26.80;;;;;;;-1.06;96.78;99200.25;103165;1286;139954;-77
2022/12/03 03:40:01;;;;;;;89.60;27.60;;;;;;;-1.05;96.76;99201.76;102941;1286;22506;-76
2022/12/03 03:42:28;;;;;;;91.10;27.30;;;;;;;-1.05;96.88;99193.15;103036;1298;139338;-77
2022/12/03 03:44:55;;;;;;;95.90;28.20;;;;;;;-1.06;96.81;99188.79;102959;1304;24340;-77
2022/12/03 03:47:22;;;;;;;94.40;29.80;;;;;;;-1.07;96.78;99192.65;103086;1295;138363;-76
2022/12/03 03:49:49;;;;;;;94.70;30.30;;;;;;;-1.07;96.69;99192.98;103016;1301;23213;-76
2022/12/03 03:52:18;;;;;;;100.50;29.40;;;;;;;-1.04;97.05;99187.20;102955;1297;22627;-77
2022/12/03 03:54:46;;;;;;;91.20;28.10;;;;;;;-1.03;96.97;99191.01;103043;1304;138481;-77
2022/12/03 03:57:13;;;;;;;91.50;27.70;;;;;;;-1.03;96.98;99189.35;102983;1289;22478;-77
2022/12/03 03:59:40;;;;;;;83.90;26.40;;;;;;;-1.03;97.07;99187.41;103180;1307;138546;-76
2022/12/03 04:02:19;;;;;;;93.70;28.50;;;;;;;-1.02;97.12;99190.73;103192;1285;25103;-76
2022/12/03 04:04:46;;;;;;;93.30;28.80;;;;;;;-1.01;97.38;99189.70;103004;1295;22597;-77
2022/12/03 04:07:14;;;;;;;93.30;29.60;;;;;;;-1.00;96.92;99188.21;103134;1288;138392;-77
2022/12/03 04:09:42;;;;;;;93.20;29.10;;;;;;;-0.99;97.29;99195.38;102960;1286;23345;-76
2022/12/03 04:14:57;;;;;;;95.80;28.90;;;;;;;-0.97;97.26;99202.34;103082;1295;24435;-77
2022/12/03 04:17:24;;;;;;;107.10;30.30;;;;;;;-0.97;97.34;99199.67;102949;1296;138685;-76
2022/12/03 04:19:51;;;;;;;91.00;29.80;;;;;;;-0.97;97.20;99198.42;102985;1289;25263;-76
2022/12/03 04:28:50;;;;;;;92.30;27.80;;;;;;;-0.99;96.85;99209.24;102465;1311;22490;-77
2022/12/03 04:30:59;;;;;;;88.70;24.80;;;;;;;-0.99;97.13;99209.77;102740;1310;138212;-76
2022/12/03 04:36:11;;;;;;;103.20;28.40;;;;;;;-0.98;97.06;99203.70;102863;1305;138490;-77
2022/12/03 04:38:38;;;;;;;81.40;24.90;;;;;;;-0.97;97.22;99196.66;103186;1298;25258;-77
2022/12/03 04:41:05;;;;;;;102.50;29.00;;;;;;;-0.99;97.11;99195.33;102958;1287;22545;-77
2022/12/03 04:44:31;;;;;;;94.00;27.90;;;;;;;-1.00;96.73;99192.83;102999;1295;138438;-77
2022/12/03 04:46:20;;;;;;;87.90;27.60;;;;;;;-1.00;97.30;99193.75;103101;1296;22556;-77
2022/12/03 04:48:47;;;;;;;89.40;28.20;;;;;;;-1.01;97.24;99189.48;103044;1307;138352;-77
2022/12/03 04:51:14;;;;;;;95.40;27.00;;;;;;;-1.02;96.69;99193.19;103177;1304;25625;-77
2022/12/03 04:53:41;;;;;;;95.70;29.00;;;;;;;-1.04;96.94;99197.99;102881;1297;138408;-77
2022/12/03 04:56:09;;;;;;;102.00;29.90;;;;;;;-1.03;97.10;99200.64;103145;1285;22484;-77
2022/12/03 04:58:36;;;;;;;94.10;28.80;;;;;;;-1.04;96.96;99197.29;103046;1305;24195;-77
2022/12/03 05:01:02;;;;;;;103.10;31.10;;;;;;;-1.04;97.34;99190.35;102907;1280;140382;-77
2022/12/03 05:03:29;;;;;;;102.20;31.30;;;;;;;-1.01;97.44;99194.17;102992;1295;22482;-77
2022/12/03 05:05:56;;;;;;;105.70;31.20;;;;;;;-0.99;97.75;99191.97;103023;1281;140650;-77
2022/12/03 05:08:23;;;;;;;94.40;30.30;;;;;;;-0.96;97.41;99193.34;102947;1302;22501;-77
2022/12/03 05:10:50;;;;;;;99.80;30.30;;;;;;;-0.93;97.81;99205.33;102997;1288;22847;-77
2022/12/03 05:13:17;;;;;;;104.00;31.40;;;;;;;-0.89;97.81;99211.16;102899;1294;138326;-77
2022/12/03 05:15:44;;;;;;;109.80;30.70;;;;;;;-0.86;98.16;99208.02;103067;1285;25950;-76
2022/12/03 05:18:10;;;;;;;100.90;29.80;;;;;;;-0.85;97.74;99216.29;102877;1297;138496;-77
2022/12/03 05:20:40;;;;;;;89.00;28.80;;;;;;;-0.83;97.58;99212.16;102936;1287;25207;-77
2022/12/03 05:23:08;;;;;;;;;;;;;;;-0.82;97.53;99213.33;103147;1304;25222;-76
2022/12/03 05:25:35;;;;;;;94.20;28.50;;;;;;;-0.82;97.64;99205.97;102922;1289;124467;-77
2022/12/03 05:28:02;;;;;;;95.40;28.40;;;;;;;-0.82;97.24;99206.16;102947;1304;22566;-76
2022/12/03 05:30:29;;;;;;;92.90;29.10;;;;;;;-0.83;97.28;99202.38;102862;1290;138297;-77
2022/12/03 05:32:57;;;;;;;79.30;27.60;;;;;;;-0.83;97.30;99198.97;103056;1287;23211;-77
2022/12/03 05:35:24;;;;;;;85.10;28.40;;;;;;;-0.84;97.37;99193.77;103042;1287;138435;-77
2022/12/03 05:37:52;;;;;;;92.70;28.20;;;;;;;-0.85;97.30;99192.19;103245;1310;22575;-77
2022/12/03 05:40:19;;;;;;;90.80;26.90;;;;;;;-0.84;97.65;99195.70;103098;1310;23060;-77
2022/12/03 05:42:52;;;;;;;94.30;28.60;;;;;;;-0.85;97.17;99190.11;102956;1294;138213;-77
2022/12/03 05:45:24;;;;;;;101.00;29.90;;;;;;;-0.86;97.21;99192.67;103040;1310;22651;-77
2022/12/03 05:47:52;;;;;;;82.00;26.00;;;;;;;-0.86;97.06;99193.08;103259;1297;139643;-77
2022/12/03 05:50:22;;;;;;;88.50;28.40;;;;;;;-0.87;97.10;99194.23;103188;1304;22503;-77
2022/12/03 05:52:49;;;;;;;85.40;27.70;;;;;;;-0.88;96.86;99193.30;103004;1310;24337;-76
2022/12/03 05:55:17;;;;;;;79.40;25.90;;;;;;;-0.87;97.04;99198.55;103208;1289;138440;-76
2022/12/03 05:57:44;;;;;;;90.50;29.10;;;;;;;-0.87;97.21;99201.33;103066;1310;24398;-77
2022/12/03 06:00:32;;;;;;;89.50;28.00;;;;;;;-0.86;97.07;99198.43;102842;1313;138215;-77
2022/12/03 06:02:59;;;;;;;83.20;27.50;;;;;;;-0.87;97.09;99187.23;103142;1311;22467;-77
2022/12/03 06:05:25;;;;;;;81.70;26.30;;;;;;;-0.88;96.84;99190.55;102977;1305;138850;-77
2022/12/03 06:07:52;;;;;;;83.60;25.00;;;;;;;-0.91;96.72;99192.27;102955;1289;25319;-76
2022/12/03 06:10:22;;;;;;;74.00;26.00;;;;;;;-0.94;96.52;99191.00;102955;1286;25259;-76
2022/12/03 06:12:50;;;;;;;85.40;26.10;;;;;;;-0.95;96.72;99195.91;102954;1286;138378;-77
2022/12/03 06:15:18;;;;;;;84.80;27.30;;;;;;;-0.97;97.23;99193.73;103228;1302;25205;-76
2022/12/03 06:17:44;;;;;;;87.80;29.00;;;;;;;-0.96;96.90;99195.67;104016;1289;138361;-76
2022/12/03 06:20:14;;;;;;;82.80;27.40;;;;;;;-0.93;97.14;99202.55;103112;1286;24902;-76
2022/12/03 06:22:41;;;;;;;88.40;27.30;;;;;;;-0.92;97.22;99204.52;104050;1279;22590;-77
2022/12/03 06:25:09;;;;;;;86.40;27.20;;;;;;;-0.90;96.99;99201.86;104104;1295;138370;-77
2022/12/03 06:27:36;;;;;;;77.30;25.90;;;;;;;-0.89;97.20;99205.09;103576;1295;22547;-77
2022/12/03 06:30:07;;;;;;;83.90;26.80;;;;;;;-0.88;96.72;99206.97;102973;1278;138483;-77
2022/12/03 06:32:34;;;;;;;77.10;26.40;;;;;;;-0.88;96.48;99199.14;103426;1287;24761;-77
2022/12/03 06:35:01;;;;;;;83.60;26.00;;;;;;;-0.88;96.65;99205.23;103337;1298;22858;-77
2022/12/03 06:37:28;;;;;;;76.30;27.90;;;;;;;-0.89;96.73;99205.67;103632;1295;138675;-76
2022/12/03 06:39:55;;;;;;;83.50;27.40;;;;;;;-0.90;96.42;99205.58;103196;1288;22459;-77
2022/12/03 06:42:21;;;;;;;78.90;27.40;;;;;;;-0.90;96.68;99198.42;103138;1293;138381;-77
2022/12/03 06:44:48;;;;;;;84.80;26.60;;;;;;;-0.92;96.57;99198.25;103494;1286;22496;-76
2022/12/03 06:47:15;;;;;;;87.70;26.00;;;;;;;-0.92;96.73;99207.37;103764;1278;22504;-76
2022/12/03 06:49:42;;;;;;;80.20;25.70;;;;;;;-0.91;96.76;99213.19;103176;1292;138267;-77
2022/12/03 06:52:09;;;;;;;86.20;27.80;;;;;;;-0.91;96.82;99211.35;103337;1302;22496;-77
2022/12/03 06:54:36;;;;;;;78.80;26.60;;;;;;;-0.89;97.24;99210.80;103038;1286;138554;-77
2022/12/03 06:57:03;;;;;;;87.90;29.80;;;;;;;-0.87;97.02;99214.52;103152;1298;25475;-76
2022/12/03 06:59:32;;;;;;;66.90;23.20;;;;;;;-0.85;96.94;99215.42;103191;1278;138412;-76
2022/12/03 07:02:00;;;;;;;78.70;26.60;;;;;;;-0.83;96.70;99214.52;105030;1279;22522;-77
2022/12/03 07:04:26;;;;;;;85.20;28.70;;;;;;;-0.82;96.84;99212.61;103871;1284;24273;-76
2022/12/03 07:06:53;;;;;;;82.40;27.00;;;;;;;-0.80;96.78;99212.26;104060;1278;138449;-77
2022/12/03 07:09:20;;;;;;;90.70;28.10;;;;;;;-0.78;96.82;99214.01;103440;1295;22481;-77
2022/12/03 07:11:47;;;;;;;79.80;27.80;;;;;;;-0.79;96.84;99214.21;103302;1304;140191;-77
2022/12/03 07:14:14;;;;;;;90.50;29.60;;;;;;;-0.77;96.91;99212.25;103122;1304;25658;-77
2022/12/03 07:16:42;;;;;;;87.00;29.80;;;;;;;-0.75;96.48;99216.60;103168;1304;22468;-76
2022/12/03 07:19:09;;;;;;;92.10;28.50;;;;;;;-0.75;96.62;99215.88;103369;1278;138370;-76
2022/12/03 07:21:37;;;;;;;90.50;28.80;;;;;;;-0.74;96.41;99212.41;103440;1286;22847;-77
2022/12/03 07:24:04;;;;;;;83.80;27.40;;;;;;;-0.73;96.42;99215.66;103043;1302;138536;-76
2022/12/03 07:26:32;;;;;;;82.20;26.50;;;;;;;-0.71;96.84;99221.27;103293;1299;22484;-77
2022/12/03 07:28:58;;;;;;;85.40;27.60;;;;;;;-0.68;96.51;99229.27;103310;1288;25596;-77
2022/12/03 07:31:26;;;;;;;78.70;25.90;;;;;;;-0.64;96.87;99230.11;103170;1310;138200;-76
2022/12/03 07:33:53;;;;;;;80.50;26.40;;;;;;;-0.63;96.46;99228.31;103439;1305;24263;-77
2022/12/03 07:36:19;;;;;;;83.60;28.20;;;;;;;-0.61;96.62;99233.14;102992;1294;138368;-76
2022/12/03 07:38:47;;;;;;;85.80;28.00;;;;;;;-0.55;96.89;99240.62;103249;1305;22501;-77
2022/12/03 07:41:15;;;;;;;81.90;29.00;;;;;;;-0.51;96.75;99235.88;103333;1285;22523;-76
2022/12/03 07:43:44;;;;;;;82.30;28.30;;;;;;;-0.50;96.10;99232.97;103264;1298;138137;-77
2022/12/03 07:46:11;;;;;;;75.20;26.60;;;;;;;-0.49;96.29;99230.95;103171;1298;25325;-77
2022/12/03 07:48:38;;;;;;;80.40;26.60;;;;;;;-0.49;95.91;99228.73;103585;1286;138990;-76
2022/12/03 07:51:05;;;;;;;75.70;26.00;;;;;;;-0.47;95.98;99227.17;103684;1286;22502;-77
2022/12/03 07:53:32;;;;;;;75.70;28.40;;;;;;;-0.45;96.07;99225.13;103296;1279;138613;-76
2022/12/03 07:55:58;;;;;;;88.10;28.80;;;;;;;-0.42;95.98;99223.34;103005;1289;25252;-76
2022/12/03 07:58:26;;;;;;;80.90;27.60;;;;;;;-0.37;95.78;99218.23;103361;1286;22991;-77
2022/12/03 08:00:53;;;;;;;83.90;27.10;;;;;;;-0.33;95.90;99219.44;103162;1295;139471;-76
2022/12/03 08:03:20;;;;;;;84.90;28.90;;;;;;;-0.29;95.77;99219.91;103195;1286;22945;-77
2022/12/03 08:05:47;;;;;;;80.40;27.00;;;;;;;-0.23;96.19;99221.66;105132;1285;138880;-74
2022/12/03 08:08:14;;;;;;;88.60;28.10;;;;;;;-0.05;97.58;99224.80;104192;1286;25206;-75
2022/12/03 08:10:41;;;;;;;95.30;37.40;;;;;;;0.14;96.32;99225.84;104218;1286;22595;-76
2022/12/03 08:13:17;;;;;;;81.30;25.90;;;;;;;0.21;94.95;99226.78;103120;1310;139143;-76
2022/12/03 08:15:45;;;;;;;80.60;25.50;;;;;;;0.25;94.67;99223.69;103231;1285;22492;-76
2022/12/03 08:18:20;;;;;;;82.00;27.10;;;;;;;0.25;94.09;99217.49;103271;1285;138285;-76
2022/12/03 08:20:49;;;;;;;81.70;28.00;;;;;;;0.22;93.71;99210.25;103215;1291;25455;-76
2022/12/03 08:23:25;;;;;;;87.70;27.90;;;;;;;0.21;93.51;99209.64;103205;1297;22537;-76
2022/12/03 08:25:52;;;;;;;70.10;25.00;;;;;;;0.20;93.88;99201.52;103165;1295;22479;-75
2022/12/03 08:28:22;;;;;;;76.00;26.30;;;;;;;0.21;93.36;99199.34;103267;1292;22479;-75
2022/12/03 08:31:17;;;;;;;73.90;25.70;;;;;;;0.20;93.62;99209.41;103129;1310;138155;-76
2022/12/03 08:33:45;;;;;;;79.20;26.50;;;;;;;0.16;93.17;99217.65;103264;1310;24209;-75
2022/12/03 08:36:18;;;;;;;76.40;26.90;;;;;;;0.13;93.05;99218.00;103198;1310;139145;-75
2022/12/03 08:38:58;;;;;;;71.70;25.60;;;;;;;0.10;93.00;99223.61;103074;1289;22521;-75
2022/12/03 08:44:24;;;;;;;72.80;25.70;;;;;;;0.03;92.70;99224.77;103289;1285;23867;-75
2022/12/03 08:47:15;;;;;;;73.50;25.20;;;;;;;-0.04;92.90;99227.35;103094;1310;22469;-75
2022/12/03 08:49:48;;;;;;;81.50;26.30;;;;;;;-0.06;92.93;99227.80;103025;1304;138664;-75
2022/12/03 08:52:18;;;;;;;86.40;28.60;;;;;;;-0.08;93.02;99231.01;103214;1298;25335;-75
2022/12/03 08:54:53;;;;;;;85.20;27.40;;;;;;;-0.08;93.39;99235.81;103161;1306;138218;-75
2022/12/03 08:57:25;;;;;;;76.80;25.60;;;;;;;-0.08;93.28;99232.40;103188;1293;22521;-75
2022/12/03 08:59:58;;;;;;;80.10;28.60;;;;;;;-0.06;93.33;99231.75;103261;1310;138773;-75
2022/12/03 09:02:31;;;;;;;75.70;27.20;;;;;;;-0.05;93.41;99231.73;103551;1295;22741;-75
2022/12/03 09:05:15;;;;;;;72.20;26.50;;;;;;;-0.02;93.41;99222.21;103628;1304;22495;-75
2022/12/03 09:07:42;;;;;;;72.20;25.10;;;;;;;0.02;93.53;99222.52;102898;1310;138445;-74
2022/12/03 09:10:09;;;;;;;83.40;29.00;;;;;;;0.05;93.35;99222.68;103153;1305;22737;-74
2022/12/03 09:12:36;;;;;;;77.20;27.00;;;;;;;0.09;93.44;99225.54;103104;1299;138183;-74
2022/12/03 09:15:03;;;;;;;72.70;27.20;;;;;;;0.11;93.39;99230.98;103180;1310;24411;-74
2022/12/03 09:17:30;;;;;;;80.40;27.30;;;;;;;0.14;93.30;99232.10;102857;1310;138258;-74
2022/12/03 09:19:57;;;;;;;74.50;27.80;;;;;;;0.16;93.23;99233.85;103132;1310;24399;-74
2022/12/03 09:22:24;;;;;;;72.30;23.00;;;;;;;0.16;93.19;99234.92;102945;1309;24439;-74
2022/12/03 09:24:51;;;;;;;69.90;26.70;;;;;;;0.16;92.99;99234.46;103061;1310;138041;-74
2022/12/03 09:27:19;;;;;;;71.60;25.80;;;;;;;0.17;92.94;99237.57;102991;1286;22733;-74
2022/12/03 09:29:46;;;;;;;76.50;26.60;;;;;;;0.17;93.07;99231.77;102882;1295;138219;-74
2022/12/03 09:32:13;;;;;;;81.80;27.90;;;;;;;0.21;92.99;99230.56;103010;1310;22538;-74
2022/12/03 09:34:41;;;;;;;78.30;26.00;;;;;;;0.19;92.60;99224.80;102956;1310;22617;-74
2022/12/03 09:37:08;;;;;;;80.90;27.00;;;;;;;0.21;93.00;99231.40;103099;1298;138091;-74
2022/12/03 09:39:35;;;;;;;83.10;27.30;;;;;;;0.23;92.97;99226.40;103017;1286;25245;-73
2022/12/03 09:42:02;;;;;;;80.20;28.10;;;;;;;0.27;93.25;99228.85;102868;1310;138215;-73
2022/12/03 09:44:32;;;;;;;88.10;29.00;;;;;;;0.31;93.11;99223.41;102957;1286;22944;-73
2022/12/03 09:47:00;;;;;;;85.30;28.10;;;;;;;0.35;93.17;99225.65;103094;1310;24297;-73
2022/12/03 09:49:30;;;;;;;83.80;26.40;;;;;;;0.40;93.07;99220.71;103036;1296;138452;-73
2022/12/03 09:52:00;;;;;;;78.50;26.10;;;;;;;0.40;92.57;99223.03;103056;1309;22497;-73
2022/12/03 09:54:29;;;;;;;72.10;26.70;;;;;;;0.40;92.44;99228.09;102892;1310;138714;-73
2022/12/03 09:56:59;;;;;;;73.30;26.60;;;;;;;0.39;92.48;99229.17;103497;1310;25353;-73
2022/12/03 09:59:30;;;;;;;78.20;24.70;;;;;;;0.40;92.46;99224.42;103230;1295;22615;-73
2022/12/03 10:01:59;;;;;;;75.50;25.20;;;;;;;0.38;91.86;99224.48;103172;1286;22483;-73
2022/12/03 10:04:27;;;;;;;85.90;28.00;;;;;;;0.35;92.02;99222.07;103556;1291;25383;-73
2022/12/03 10:06:57;;;;;;;84.70;28.30;;;;;;;0.33;92.03;99214.39;103331;1309;138013;-73
2022/12/03 10:09:27;;;;;;;80.30;26.70;;;;;;;0.35;92.45;99216.23;103079;1288;25267;-73
2022/12/03 10:11:58;;;;;;;87.80;29.00;;;;;;;0.35;92.28;99214.36;103299;1310;138229;-73
2022/12/03 10:14:26;;;;;;;84.00;27.10;;;;;;;0.37;92.47;99218.63;103132;1301;22483;-73
2022/12/03 10:16:54;;;;;;;85.90;31.20;;;;;;;0.40;92.60;99219.11;103024;1310;22479;-73
2022/12/03 10:19:27;;;;;;;78.40;27.40;;;;;;;0.41;92.29;99219.55;102931;1288;138164;-73
2022/12/03 10:21:54;;;;;;;89.80;26.50;;;;;;;0.41;92.71;99211.52;104722;1291;22481;-74
2022/12/03 10:24:21;;;;;;;89.70;27.90;;;;;;;0.52;93.21;99209.45;103065;1295;138246;-74
2022/12/03 10:26:50;;;;;;;72.40;25.90;;;;;;;0.53;92.26;99202.85;103040;1302;24320;-73
2022/12/03 10:29:23;;;;;;;79.00;26.20;;;;;;;0.55;92.17;99197.53;103127;1310;22484;-73
2022/12/03 10:31:57;;;;;;;78.00;27.20;;;;;;;0.54;91.89;99201.48;103130;1310;137978;-73
2022/12/03 10:34:35;;;;;;;74.00;26.20;;;;;;;0.51;91.26;99207.53;103277;1302;22486;-73
2022/12/03 10:37:21;;;;;;;81.60;28.50;;;;;;;0.39;90.95;99205.44;103588;1301;138099;-74
2022/12/03 10:39:52;;;;;;;84.80;28.10;;;;;;;0.34;91.61;99204.91;103448;1295;25700;-74
2022/12/03 10:42:19;;;;;;;86.90;29.00;;;;;;;0.34;91.96;99201.53;104041;1278;138884;-74
2022/12/03 10:44:46;;;;;;;84.90;30.10;;;;;;;0.35;92.06;99195.38;103192;1288;22477;-74
2022/12/03 10:47:14;;;;;;;92.30;29.10;;;;;;;0.34;92.02;99191.83;103847;1288;22479;-74
2022/12/03 10:49:41;;;;;;;85.90;28.00;;;;;;;0.35;91.82;99193.11;103979;1285;140472;-74
2022/12/03 10:52:34;;;;;;;82.30;28.40;;;;;;;0.39;92.18;99196.73;103042;1303;22605;-74
2022/12/03 10:55:01;;;;;;;86.40;29.80;;;;;;;0.41;92.30;99204.88;102851;1294;138228;-75
2022/12/03 10:57:28;;;;;;;86.20;29.30;;;;;;;0.43;92.21;99209.44;103493;1282;22484;-74
2022/12/03 10:59:55;;;;;;;77.80;28.60;;;;;;;0.43;92.09;99206.96;103326;1302;138273;-74
2022/12/03 11:02:24;;;;;;;81.70;28.80;;;;;;;0.41;91.76;99206.48;103332;1297;24754;-74
2022/12/03 11:04:51;;;;;;;87.90;29.10;;;;;;;0.37;91.64;99206.34;103597;1301;22464;-74
2022/12/03 11:07:20;;;;;;;88.70;29.90;;;;;;;0.35;91.84;99198.92;103638;1287;138179;-74
2022/12/03 11:09:49;;;;;;;89.80;31.40;;;;;;;0.35;91.92;99193.20;103339;1287;25373;-74
2022/12/03 11:12:22;;;;;;;81.00;29.80;;;;;;;0.35;92.17;99188.34;103616;1286;138887;-74
2022/12/03 11:14:55;;;;;;;75.60;27.70;;;;;;;0.35;92.06;99189.23;103560;1302;22541;-75
2022/12/03 11:17:42;;;;;;;82.10;28.40;;;;;;;0.34;92.14;99190.08;103247;1295;22477;-74
2022/12/03 11:20:32;;;;;;;77.30;25.80;;;;;;;0.34;92.12;99192.55;103326;1289;25452;-75
2022/12/03 11:22:59;;;;;;;87.00;30.10;;;;;;;0.35;92.37;99194.77;103120;1307;23907;-75
2022/12/03 11:25:26;;;;;;;83.10;30.30;;;;;;;0.36;92.44;99195.02;103600;1286;138172;-75
2022/12/03 11:28:14;;;;;;;90.20;30.20;;;;;;;0.38;92.21;99196.28;104159;1281;22229;-75
2022/12/03 11:30:50;;;;;;;78.60;25.80;;;;;;;0.36;92.19;99195.01;105254;1280;138186;-75
2022/12/03 11:33:22;;;;;;;82.90;28.90;;;;;;;0.35;92.16;99196.52;104765;1278;24392;-74
2022/12/03 11:36:03;;;;;;;86.50;26.70;;;;;;;0.43;93.19;99193.09;104896;1284;138310;-75